sensor_id;sensor_type;location;lat;lon;timestamp;pressure;altitude;pressure_sealevel;temperature;humidity
57572;BME280;44459;43.522;24.470;2022-10-04T00:01:10;100307.91;;;11.05;84.11
57572;BME280;44459;43.522;24.470;2022-10-04T00:03:43;100311.44;;;11.06;83.96
57572;BME280;44459;43.522;24.470;2022-10-04T00:06:17;100315.81;;;11.02;84.13
57572;BME280;44459;43.522;24.470;2022-10-04T00:08:59;100304.34;;;10.97;84.43
57572;BME280;44459;43.522;24.470;2022-10-04T00:11:33;100306.09;;;10.95;84.32
57572;BME280;44459;43.522;24.470;2022-10-04T00:14:05;100305.19;;;10.90;84.49
57572;BME280;44459;43.522;24.470;2022-10-04T00:16:35;100309.59;;;10.94;84.71
57572;BME280;44459;43.522;24.470;2022-10-04T00:24:25;100300.78;;;10.89;84.77
57572;BME280;44459;43.522;24.470;2022-10-04T00:29:37;100302.53;;;10.87;85.27
57572;BME280;44459;43.522;24.470;2022-10-04T00:36:57;100301.59;;;10.81;85.83
57572;BME280;44459;43.522;24.470;2022-10-04T00:39:26;100304.22;;;10.76;85.78
57572;BME280;44459;43.522;24.470;2022-10-04T00:42:33;100305.97;;;10.77;86.02
57572;BME280;44459;43.522;24.470;2022-10-04T00:45:12;100311.28;;;10.79;85.81
57572;BME280;44459;43.522;24.470;2022-10-04T00:50:31;100310.41;;;10.78;85.90
57572;BME280;44459;43.522;24.470;2022-10-04T00:52:59;100312.13;;;10.76;85.93
57572;BME280;44459;43.522;24.470;2022-10-04T00:55:33;100316.56;;;10.80;86.13
57572;BME280;44459;43.522;24.470;2022-10-04T00:58:02;100308.66;;;10.82;85.83
57572;BME280;44459;43.522;24.470;2022-10-04T01:00:30;100317.47;;;10.82;85.88
57572;BME280;44459;43.522;24.470;2022-10-04T01:03:01;100313.94;;;10.83;85.93
57572;BME280;44459;43.522;24.470;2022-10-04T01:05:33;100306.94;;;10.85;86.09
57572;BME280;44459;43.522;24.470;2022-10-04T01:08:07;100317.50;;;10.88;85.90
57572;BME280;44459;43.522;24.470;2022-10-04T01:10:47;100305.16;;;10.87;85.99
57572;BME280;44459;43.522;24.470;2022-10-04T01:13:28;100309.53;;;10.84;86.06
57572;BME280;44459;43.522;24.470;2022-10-04T01:16:19;100304.25;;;10.79;86.33
57572;BME280;44459;43.522;24.470;2022-10-04T01:18:46;100310.38;;;10.80;86.09
57572;BME280;44459;43.522;24.470;2022-10-04T01:24:15;100330.63;;;10.78;86.69
57572;BME280;44459;43.522;24.470;2022-10-04T01:26:42;100322.75;;;10.82;86.52
57572;BME280;44459;43.522;24.470;2022-10-04T01:29:27;100320.13;;;10.82;86.48
57572;BME280;44459;43.522;24.470;2022-10-04T01:31:55;100328.91;;;10.81;86.41
57572;BME280;44459;43.522;24.470;2022-10-04T01:34:23;100330.63;;;10.78;86.17
57572;BME280;44459;43.522;24.470;2022-10-04T01:36:53;100338.59;;;10.79;86.41
57572;BME280;44459;43.522;24.470;2022-10-04T01:39:21;100341.22;;;10.79;86.29
57572;BME280;44459;43.522;24.470;2022-10-04T01:42:25;100338.63;;;10.85;86.28
57572;BME280;44459;43.522;24.470;2022-10-04T01:45:00;100350.97;;;10.86;86.42
57572;BME280;44459;43.522;24.470;2022-10-04T01:50:06;100353.59;;;10.86;86.34
57572;BME280;44459;43.522;24.470;2022-10-04T01:52:41;100355.38;;;10.92;86.07
57572;BME280;44459;43.522;24.470;2022-10-04T01:55:17;100353.66;;;10.95;85.94
57572;BME280;44459;43.522;24.470;2022-10-04T01:57:48;100358.06;;;10.98;86.20
57572;BME280;44459;43.522;24.470;2022-10-04T02:00:15;100350.16;;;11.02;86.20
57572;BME280;44459;43.522;24.470;2022-10-04T02:03:04;100359.88;;;11.03;85.62
57572;BME280;44459;43.522;24.470;2022-10-04T02:05:39;100347.53;;;11.02;85.63
57572;BME280;44459;43.522;24.470;2022-10-04T02:08:10;100348.41;;;11.00;85.76
57572;BME280;44459;43.522;24.470;2022-10-04T02:10:39;100336.94;;;10.96;86.08
57572;BME280;44459;43.522;24.470;2022-10-04T02:13:08;100349.28;;;11.02;85.79
57572;BME280;44459;43.522;24.470;2022-10-04T02:15:36;100359.88;;;11.08;85.67
57572;BME280;44459;43.522;24.470;2022-10-04T02:18:10;100359.91;;;11.09;85.85
57572;BME280;44459;43.522;24.470;2022-10-04T02:20:38;100366.97;;;11.10;85.37
57572;BME280;44459;43.522;24.470;2022-10-04T02:23:04;100362.56;;;11.13;85.69
57572;BME280;44459;43.522;24.470;2022-10-04T02:25:30;100361.69;;;11.17;85.54
57572;BME280;44459;43.522;24.470;2022-10-04T02:27:56;100366.09;;;11.16;85.15
57572;BME280;44459;43.522;24.470;2022-10-04T02:30:23;100357.31;;;11.17;85.50
57572;BME280;44459;43.522;24.470;2022-10-04T02:32:52;100373.16;;;11.17;85.60
57572;BME280;44459;43.522;24.470;2022-10-04T02:35:42;100379.28;;;11.15;85.48
57572;BME280;44459;43.522;24.470;2022-10-04T02:38:13;100368.75;;;11.16;85.89
57572;BME280;44459;43.522;24.470;2022-10-04T02:43:39;100373.97;;;11.11;85.87
57572;BME280;44459;43.522;24.470;2022-10-04T02:46:22;100378.34;;;11.03;86.07
57572;BME280;44459;43.522;24.470;2022-10-04T02:48:58;100378.31;;;11.00;86.68
57572;BME280;44459;43.522;24.470;2022-10-04T02:51:37;100380.03;;;10.92;86.80
57572;BME280;44459;43.522;24.470;2022-10-04T02:54:10;100371.19;;;10.87;86.75
57572;BME280;44459;43.522;24.470;2022-10-04T02:56:38;100370.28;;;10.82;87.50
57572;BME280;44459;43.522;24.470;2022-10-04T02:59:05;100371.97;;;10.74;87.71
57572;BME280;44459;43.522;24.470;2022-10-04T03:01:53;100371.09;;;10.72;87.81
57572;BME280;44459;43.522;24.470;2022-10-04T03:04:22;100380.75;;;10.70;87.82
57572;BME280;44459;43.522;24.470;2022-10-04T03:06:49;100370.19;;;10.69;87.92
57572;BME280;44459;43.522;24.470;2022-10-04T03:09:16;100370.97;;;10.57;88.29
57572;BME280;44459;43.522;24.470;2022-10-04T03:11:44;100385.06;;;10.60;88.33
57572;BME280;44459;43.522;24.470;2022-10-04T03:14:16;100378.00;;;10.55;88.59
57572;BME280;44459;43.522;24.470;2022-10-04T03:16:44;100389.31;;;10.45;88.66
57572;BME280;44459;43.522;24.470;2022-10-04T03:19:12;100380.50;;;10.43;88.81
57572;BME280;44459;43.522;24.470;2022-10-04T03:21:42;100380.56;;;10.47;88.93
57572;BME280;44459;43.522;24.470;2022-10-04T03:24:12;100390.19;;;10.45;88.95
57572;BME280;44459;43.522;24.470;2022-10-04T03:26:45;100380.47;;;10.41;88.95
57572;BME280;44459;43.522;24.470;2022-10-04T03:29:14;100390.22;;;10.44;89.01
57572;BME280;44459;43.522;24.470;2022-10-04T03:31:43;100389.28;;;10.40;89.10
57572;BME280;44459;43.522;24.470;2022-10-04T03:34:26;100398.91;;;10.34;89.54
57572;BME280;44459;43.522;24.470;2022-10-04T03:36:54;100398.94;;;10.37;89.68
57572;BME280;44459;43.522;24.470;2022-10-04T03:39:44;100398.88;;;10.32;90.23
57572;BME280;44459;43.522;24.470;2022-10-04T03:42:16;100401.53;;;10.31;90.13
57572;BME280;44459;43.522;24.470;2022-10-04T03:44:48;100398.84;;;10.26;90.29
57572;BME280;44459;43.522;24.470;2022-10-04T03:47:19;100399.72;;;10.27;90.34
57572;BME280;44459;43.522;24.470;2022-10-04T03:49:46;100401.50;;;10.29;90.39
57572;BME280;44459;43.522;24.470;2022-10-04T03:52:19;100390.06;;;10.27;90.58
57572;BME280;44459;43.522;24.470;2022-10-04T03:54:48;100394.41;;;10.25;90.51
57572;BME280;44459;43.522;24.470;2022-10-04T03:57:15;100399.72;;;10.27;90.44
57572;BME280;44459;43.522;24.470;2022-10-04T03:59:41;100404.09;;;10.25;90.56
57572;BME280;44459;43.522;24.470;2022-10-04T04:05:09;100403.16;;;10.20;90.89
57572;BME280;44459;43.522;24.470;2022-10-04T04:10:17;100408.47;;;10.24;90.96
57572;BME280;44459;43.522;24.470;2022-10-04T04:12:50;100404.06;;;10.22;91.31
57572;BME280;44459;43.522;24.470;2022-10-04T04:15:17;100407.59;;;10.22;91.34
57572;BME280;44459;43.522;24.470;2022-10-04T04:17:44;100411.09;;;10.24;91.29
57572;BME280;44459;43.522;24.470;2022-10-04T04:20:24;100410.19;;;10.21;91.61
57572;BME280;44459;43.522;24.470;2022-10-04T04:25:23;100415.44;;;10.18;92.23
57572;BME280;44459;43.522;24.470;2022-10-04T04:27:53;100419.81;;;10.16;91.94
57572;BME280;44459;43.522;24.470;2022-10-04T04:30:20;100411.06;;;10.17;92.09
57572;BME280;44459;43.522;24.470;2022-10-04T04:32:51;100414.56;;;10.19;91.76
57572;BME280;44459;43.522;24.470;2022-10-04T04:35:39;100424.25;;;10.21;91.96
57572;BME280;44459;43.522;24.470;2022-10-04T04:38:18;100426.91;;;10.20;91.86
57572;BME280;44459;43.522;24.470;2022-10-04T04:40:45;100428.72;;;10.24;91.84
57572;BME280;44459;43.522;24.470;2022-10-04T04:43:16;100436.63;;;10.24;91.91
57572;BME280;44459;43.522;24.470;2022-10-04T04:45:44;100438.44;;;10.29;91.73
57572;BME280;44459;43.522;24.470;2022-10-04T04:48:14;100438.50;;;10.34;91.56
57572;BME280;44459;43.522;24.470;2022-10-04T04:50:40;100440.25;;;10.35;91.42
57572;BME280;44459;43.522;24.470;2022-10-04T04:53:13;100446.44;;;10.38;91.65
57572;BME280;44459;43.522;24.470;2022-10-04T04:56:01;100465.03;;;10.49;91.27
57572;BME280;44459;43.522;24.470;2022-10-04T04:58:36;100465.03;;;10.50;90.88
57572;BME280;44459;43.522;24.470;2022-10-04T05:01:17;100467.75;;;10.59;90.74
57572;BME280;44459;43.522;24.470;2022-10-04T05:04:02;100463.44;;;10.69;90.09
57572;BME280;44459;43.522;24.470;2022-10-04T05:06:29;100475.03;;;10.83;90.01
57572;BME280;44459;43.522;24.470;2022-10-04T05:08:55;100462.78;;;10.91;89.63
57572;BME280;44459;43.522;24.470;2022-10-04T05:11:22;100472.56;;;11.03;88.71
57572;BME280;44459;43.522;24.470;2022-10-04T05:13:54;100474.50;;;11.24;88.30
57572;BME280;44459;43.522;24.470;2022-10-04T05:16:23;100478.97;;;11.37;87.67
57572;BME280;44459;43.522;24.470;2022-10-04T05:18:58;100480.81;;;11.47;87.43
57572;BME280;44459;43.522;24.470;2022-10-04T05:21:27;100485.28;;;11.55;86.37
57572;BME280;44459;43.522;24.470;2022-10-04T05:23:55;100493.22;;;11.58;86.31
57572;BME280;44459;43.522;24.470;2022-10-04T05:26:29;100496.78;;;11.62;86.25
57572;BME280;44459;43.522;24.470;2022-10-04T05:28:59;100495.03;;;11.70;85.74
57572;BME280;44459;43.522;24.470;2022-10-04T05:34:00;100495.97;;;11.72;85.30
57572;BME280;44459;43.522;24.470;2022-10-04T05:36:39;100505.66;;;11.72;85.49
57572;BME280;44459;43.522;24.470;2022-10-04T05:39:27;100522.38;;;11.66;85.24
57572;BME280;44459;43.522;24.470;2022-10-04T05:42:24;100516.16;;;11.64;85.38
57572;BME280;44459;43.522;24.470;2022-10-04T05:44:56;100517.00;;;11.57;85.27
57572;BME280;44459;43.522;24.470;2022-10-04T05:47:27;100522.28;;;11.60;85.17
57572;BME280;44459;43.522;24.470;2022-10-04T05:49:56;100527.56;;;11.57;85.50
57572;BME280;44459;43.522;24.470;2022-10-04T05:52:32;100524.91;;;11.54;85.04
57572;BME280;44459;43.522;24.470;2022-10-04T05:55:26;100528.50;;;11.59;85.51
57572;BME280;44459;43.522;24.470;2022-10-04T05:58:43;100539.91;;;11.56;85.29
57572;BME280;44459;43.522;24.470;2022-10-04T06:06:12;100548.88;;;11.75;84.72
57572;BME280;44459;43.522;24.470;2022-10-04T06:12:10;100543.63;;;11.80;84.08
57572;BME280;44459;43.522;24.470;2022-10-04T06:23:16;100554.97;;;15.10;69.04
57572;BME280;44459;43.522;24.470;2022-10-04T06:25:53;100557.41;;;15.44;66.91
57572;BME280;44459;43.522;24.470;2022-10-04T06:28:39;100561.44;;;15.87;65.17
57572;BME280;44459;43.522;24.470;2022-10-04T06:31:22;100560.19;;;16.23;63.28
57572;BME280;44459;43.522;24.470;2022-10-04T06:39:37;100565.50;;;16.93;60.94
57572;BME280;44459;43.522;24.470;2022-10-04T06:42:16;100568.16;;;17.50;59.36
57572;BME280;44459;43.522;24.470;2022-10-04T06:48:04;100578.25;;;17.86;57.47
57572;BME280;44459;43.522;24.470;2022-10-04T07:02:10;100589.31;;;18.60;55.63
57572;BME280;44459;43.522;24.470;2022-10-04T07:04:43;100581.28;;;18.58;53.20
57572;BME280;44459;43.522;24.470;2022-10-04T07:12:52;100592.66;;;18.24;53.66
57572;BME280;44459;43.522;24.470;2022-10-04T07:15:22;100610.72;;;17.01;57.38
57572;BME280;44459;43.522;24.470;2022-10-04T07:17:51;100603.25;;;15.78;61.44
57572;BME280;44459;43.522;24.470;2022-10-04T07:20:30;100609.34;;;15.90;62.94
57572;BME280;44459;43.522;24.470;2022-10-04T07:23:22;100613.34;;;15.32;63.28
57572;BME280;44459;43.522;24.470;2022-10-04T07:25:54;100597.97;;;16.58;59.24
57572;BME280;44459;43.522;24.470;2022-10-04T07:28:27;100610.72;;;17.02;56.98
57572;BME280;44459;43.522;24.470;2022-10-04T07:31:32;100607.13;;;16.33;59.66
57572;BME280;44459;43.522;24.470;2022-10-04T07:34:39;100620.28;;;16.47;58.84
57572;BME280;44459;43.522;24.470;2022-10-04T07:37:12;100617.41;;;17.29;57.08
57572;BME280;44459;43.522;24.470;2022-10-04T07:39:42;100632.69;;;17.78;56.46
57572;BME280;44459;43.522;24.470;2022-10-04T07:42:34;100625.88;;;18.10;54.89
57572;BME280;44459;43.522;24.470;2022-10-04T07:47:39;100614.94;;;19.85;50.83
57572;BME280;44459;43.522;24.470;2022-10-04T07:50:38;100604.72;;;20.33;47.29
57572;BME280;44459;43.522;24.470;2022-10-04T08:00:57;100614.47;;;18.47;53.57
57572;BME280;44459;43.522;24.470;2022-10-04T08:03:40;100616.44;;;18.39;52.78
57572;BME280;44459;43.522;24.470;2022-10-04T08:57:55;100638.97;;;16.44;62.09
57572;BME280;44459;43.522;24.470;2022-10-04T09:11:39;100641.72;;;16.35;61.03
57572;BME280;44459;43.522;24.470;2022-10-04T09:17:28;100636.63;;;16.17;60.73
57572;BME280;44459;43.522;24.470;2022-10-04T09:23:14;100645.41;;;16.22;62.30
57572;BME280;44459;43.522;24.470;2022-10-04T09:36:23;100659.25;;;16.60;60.02
57572;BME280;44459;43.522;24.470;2022-10-04T09:41:40;100652.06;;;16.67;61.02
57572;BME280;44459;43.522;24.470;2022-10-04T09:44:13;100650.22;;;16.72;60.75
57572;BME280;44459;43.522;24.470;2022-10-04T10:04:24;100652.22;;;17.22;57.31
57572;BME280;44459;43.522;24.470;2022-10-04T10:07:08;100647.69;;;17.28;57.25
57572;BME280;44459;43.522;24.470;2022-10-04T10:09:46;100649.31;;;17.38;57.82
57572;BME280;44459;43.522;24.470;2022-10-04T10:21:54;100636.13;;;17.28;55.52
57572;BME280;44459;43.522;24.470;2022-10-04T10:36:37;100631.13;;;17.65;54.52
57572;BME280;44459;43.522;24.470;2022-10-04T10:39:31;100632.22;;;17.50;53.64
57572;BME280;44459;43.522;24.470;2022-10-04T10:42:34;100625.03;;;17.53;54.46
57572;BME280;44459;43.522;24.470;2022-10-04T10:47:53;100630.34;;;17.58;54.05
57572;BME280;44459;43.522;24.470;2022-10-04T11:14:06;100635.94;;;17.40;53.02
57572;BME280;44459;43.522;24.470;2022-10-04T11:25:36;100622.34;;;17.56;52.56
57572;BME280;44459;43.522;24.470;2022-10-04T11:28:20;100613.28;;;17.68;49.94
57572;BME280;44459;43.522;24.470;2022-10-04T11:54:18;100628.56;;;18.10;50.17
57572;BME280;44459;43.522;24.470;2022-10-04T11:57:13;100625.56;;;18.26;50.22
57572;BME280;44459;43.522;24.470;2022-10-04T12:21:41;100629.22;;;18.68;47.64
57572;BME280;44459;43.522;24.470;2022-10-04T12:24:30;100632.84;;;18.67;46.28
57572;BME280;44459;43.522;24.470;2022-10-04T12:30:00;100636.34;;;18.70;45.98
57572;BME280;44459;43.522;24.470;2022-10-04T12:46:02;100637.91;;;18.79;48.20
57572;BME280;44459;43.522;24.470;2022-10-04T12:57:02;100627.28;;;18.76;47.55
57572;BME280;44459;43.522;24.470;2022-10-04T13:00:45;100626.34;;;18.78;46.38
57572;BME280;44459;43.522;24.470;2022-10-04T13:08:30;100624.25;;;18.92;46.70
57572;BME280;44459;43.522;24.470;2022-10-04T13:11:27;100626.84;;;18.97;45.86
57572;BME280;44459;43.522;24.470;2022-10-04T13:19:46;100635.22;;;19.20;45.01
57572;BME280;44459;43.522;24.470;2022-10-04T13:22:35;100630.72;;;19.22;45.40
57572;BME280;44459;43.522;24.470;2022-10-04T13:27:59;100634.22;;;19.26;44.88
57572;BME280;44459;43.522;24.470;2022-10-04T13:36:27;100634.16;;;19.29;43.45
57572;BME280;44459;43.522;24.470;2022-10-04T13:41:19;100635.44;;;21.97;39.28
57572;BME280;44459;43.522;24.470;2022-10-04T13:58:15;100640.41;;;24.98;33.24
57572;BME280;44459;43.522;24.470;2022-10-04T14:01:13;100644.56;;;25.24;33.33
57572;BME280;44459;43.522;24.470;2022-10-04T14:38:11;100666.91;;;23.42;36.52
57572;BME280;44459;43.522;24.470;2022-10-04T14:56:55;100685.31;;;21.23;40.40
57572;BME280;44459;43.522;24.470;2022-10-04T15:00:07;100691.41;;;20.66;41.48
57572;BME280;44459;43.522;24.470;2022-10-04T15:03:05;100696.09;;;20.90;41.61
57572;BME280;44459;43.522;24.470;2022-10-04T15:11:13;100710.72;;;19.76;43.70
57572;BME280;44459;43.522;24.470;2022-10-04T15:19:11;100721.41;;;18.47;45.35
57572;BME280;44459;43.522;24.470;2022-10-04T15:24:52;100725.72;;;18.05;47.85
57572;BME280;44459;43.522;24.470;2022-10-04T15:30:22;100731.97;;;17.43;50.08
57572;BME280;44459;43.522;24.470;2022-10-04T15:33:24;100739.63;;;17.01;50.33
57572;BME280;44459;43.522;24.470;2022-10-04T15:57:31;100773.31;;;16.20;54.15
57572;BME280;44459;43.522;24.470;2022-10-04T16:00:22;100791.22;;;16.01;54.70
57572;BME280;44459;43.522;24.470;2022-10-04T16:03:31;100781.53;;;15.91;55.61
57572;BME280;44459;43.522;24.470;2022-10-04T16:06:03;100784.25;;;15.82;55.46
57572;BME280;44459;43.522;24.470;2022-10-04T16:11:53;100796.78;;;15.62;57.07
57572;BME280;44459;43.522;24.470;2022-10-04T16:14:34;100806.56;;;15.60;56.80
57572;BME280;44459;43.522;24.470;2022-10-04T16:19:46;100813.72;;;15.38;57.83
57572;BME280;44459;43.522;24.470;2022-10-04T16:22:28;100817.28;;;15.33;57.36
57572;BME280;44459;43.522;24.470;2022-10-04T16:24:57;100822.59;;;15.36;58.29
57572;BME280;44459;43.522;24.470;2022-10-04T16:30:39;100835.06;;;15.22;59.10
57572;BME280;44459;43.522;24.470;2022-10-04T16:33:50;100839.56;;;15.06;59.38
57572;BME280;44459;43.522;24.470;2022-10-04T16:36:22;100844.88;;;14.94;60.08
57572;BME280;44459;43.522;24.470;2022-10-04T16:38:55;100845.78;;;14.82;60.15
57572;BME280;44459;43.522;24.470;2022-10-04T16:44:26;100849.34;;;14.66;61.38
57572;BME280;44459;43.522;24.470;2022-10-04T16:46:54;100858.22;;;14.47;61.96
57572;BME280;44459;43.522;24.470;2022-10-04T16:49:27;100867.06;;;14.43;62.23
57572;BME280;44459;43.522;24.470;2022-10-04T16:57:20;100864.38;;;14.32;63.03
57572;BME280;44459;43.522;24.470;2022-10-04T17:00:30;100873.22;;;14.28;62.85
57572;BME280;44459;43.522;24.470;2022-10-04T17:03:40;100873.22;;;14.25;62.80
57572;BME280;44459;43.522;24.470;2022-10-04T17:08:37;100871.44;;;14.18;63.03
57572;BME280;44459;43.522;24.470;2022-10-04T17:11:27;100874.09;;;14.15;63.54
57572;BME280;44459;43.522;24.470;2022-10-04T17:14:14;100879.38;;;14.07;64.02
57572;BME280;44459;43.522;24.470;2022-10-04T17:16:54;100888.19;;;13.96;64.62
57572;BME280;44459;43.522;24.470;2022-10-04T17:19:40;100889.97;;;13.97;64.74
57572;BME280;44459;43.522;24.470;2022-10-04T17:22:42;100896.13;;;13.84;65.01
57572;BME280;44459;43.522;24.470;2022-10-04T17:31:10;100904.84;;;13.52;65.95
57572;BME280;44459;43.522;24.470;2022-10-04T17:36:47;100922.50;;;13.49;66.49
57572;BME280;44459;43.522;24.470;2022-10-04T17:39:30;100917.19;;;13.47;66.20
57572;BME280;44459;43.522;24.470;2022-10-04T17:47:16;100917.09;;;13.29;67.14
57572;BME280;44459;43.522;24.470;2022-10-04T17:50:04;100929.47;;;13.30;67.73
57572;BME280;44459;43.522;24.470;2022-10-04T17:52:55;100938.25;;;13.23;67.78
57572;BME280;44459;43.522;24.470;2022-10-04T17:55:48;100932.03;;;13.15;67.96
57572;BME280;44459;43.522;24.470;2022-10-04T17:58:23;100939.06;;;13.12;68.34
57572;BME280;44459;43.522;24.470;2022-10-04T18:03:41;100938.16;;;13.09;68.50
57572;BME280;44459;43.522;24.470;2022-10-04T18:06:32;100939.88;;;13.04;68.97
57572;BME280;44459;43.522;24.470;2022-10-04T18:11:45;100942.44;;;12.95;69.02
57572;BME280;44459;43.522;24.470;2022-10-04T18:14:43;100952.06;;;12.86;69.82
57572;BME280;44459;43.522;24.470;2022-10-04T18:17:09;100957.34;;;12.83;69.95
57572;BME280;44459;43.522;24.470;2022-10-04T18:22:12;100960.84;;;12.79;70.76
57572;BME280;44459;43.522;24.470;2022-10-04T18:24:43;100959.06;;;12.76;70.81
57572;BME280;44459;43.522;24.470;2022-10-04T18:27:22;100962.53;;;12.69;71.48
57572;BME280;44459;43.522;24.470;2022-10-04T18:35:27;100983.59;;;12.57;72.34
57572;BME280;44459;43.522;24.470;2022-10-04T18:40:40;100977.31;;;12.47;72.92
57572;BME280;44459;43.522;24.470;2022-10-04T18:43:38;100978.16;;;12.42;73.43
57572;BME280;44459;43.522;24.470;2022-10-04T18:46:19;100986.97;;;12.41;73.31
57572;BME280;44459;43.522;24.470;2022-10-04T18:49:12;100980.69;;;12.33;73.85
57572;BME280;44459;43.522;24.470;2022-10-04T18:51:50;100983.38;;;12.34;73.62
57572;BME280;44459;43.522;24.470;2022-10-04T18:57:24;100995.63;;;12.25;74.52
57572;BME280;44459;43.522;24.470;2022-10-04T19:05:35;100999.94;;;12.17;74.99
57572;BME280;44459;43.522;24.470;2022-10-04T19:08:06;101003.44;;;12.16;74.81
57572;BME280;44459;43.522;24.470;2022-10-04T19:10:49;101007.81;;;12.10;75.32
57572;BME280;44459;43.522;24.470;2022-10-04T19:19:12;101017.31;;;11.96;76.08
57572;BME280;44459;43.522;24.470;2022-10-04T19:21:44;101015.47;;;11.89;76.11
57572;BME280;44459;43.522;24.470;2022-10-04T19:26:58;101017.09;;;11.80;76.96
57572;BME280;44459;43.522;24.470;2022-10-04T19:35:08;101023.19;;;11.73;77.18
57572;BME280;44459;43.522;24.470;2022-10-04T19:38:19;101019.69;;;11.77;77.38
57572;BME280;44459;43.522;24.470;2022-10-04T19:41:02;101030.34;;;11.80;77.48
57572;BME280;44459;43.522;24.470;2022-10-04T19:43:57;101029.41;;;11.76;77.44
57572;BME280;44459;43.522;24.470;2022-10-04T19:49:14;101030.41;;;11.86;77.15
57572;BME280;44459;43.522;24.470;2022-10-04T19:51:47;101041.84;;;11.85;77.48
57572;BME280;44459;43.522;24.470;2022-10-04T19:54:20;101045.22;;;11.75;77.73
57572;BME280;44459;43.522;24.470;2022-10-04T19:56:49;101050.25;;;11.58;78.22
57572;BME280;44459;43.522;24.470;2022-10-04T19:59:36;101052.66;;;11.43;78.98
57572;BME280;44459;43.522;24.470;2022-10-04T20:02:15;101055.16;;;11.34;79.60
57572;BME280;44459;43.522;24.470;2022-10-04T20:04:40;101055.94;;;11.28;79.97
57572;BME280;44459;43.522;24.470;2022-10-04T20:15:18;101065.91;;;10.93;81.94
57572;BME280;44459;43.522;24.470;2022-10-04T20:17:46;101067.53;;;10.87;81.99
57572;BME280;44459;43.522;24.470;2022-10-04T20:20:14;101071.13;;;10.89;82.25
57572;BME280;44459;43.522;24.470;2022-10-04T20:31:01;101088.50;;;10.78;82.63
57572;BME280;44459;43.522;24.470;2022-10-04T20:33:47;101090.25;;;10.77;82.77
57572;BME280;44459;43.522;24.470;2022-10-04T20:38:59;101093.59;;;10.67;82.94
57572;BME280;44459;43.522;24.470;2022-10-04T20:43:58;101100.59;;;10.65;82.77
57572;BME280;44459;43.522;24.470;2022-10-04T20:46:36;101098.81;;;10.66;82.69
57572;BME280;44459;43.522;24.470;2022-10-04T20:49:14;101104.94;;;10.62;82.50
57572;BME280;44459;43.522;24.470;2022-10-04T20:51:47;101103.16;;;10.62;82.48
57572;BME280;44459;43.522;24.470;2022-10-04T20:54:17;101101.47;;;10.64;82.52
57572;BME280;44459;43.522;24.470;2022-10-04T20:56:45;101107.59;;;10.63;82.23
57572;BME280;44459;43.522;24.470;2022-10-04T20:59:14;101103.94;;;10.56;82.17
57572;BME280;44459;43.522;24.470;2022-10-04T21:01:41;101102.03;;;10.49;82.29
57572;BME280;44459;43.522;24.470;2022-10-04T21:04:26;101113.44;;;10.47;82.85
57572;BME280;44459;43.522;24.470;2022-10-04T21:06:58;101115.06;;;10.42;82.92
57572;BME280;44459;43.522;24.470;2022-10-04T21:09:25;101113.22;;;10.38;82.86
57572;BME280;44459;43.522;24.470;2022-10-04T21:11:53;101114.22;;;10.43;82.90
57572;BME280;44459;43.522;24.470;2022-10-04T21:14:26;101116.91;;;10.46;82.99
57572;BME280;44459;43.522;24.470;2022-10-04T21:16:55;101116.97;;;10.47;82.89
57572;BME280;44459;43.522;24.470;2022-10-04T21:22:06;101110.78;;;10.47;82.85
57572;BME280;44459;43.522;24.470;2022-10-04T21:27:00;101110.78;;;10.47;83.06
57572;BME280;44459;43.522;24.470;2022-10-04T21:29:26;101122.25;;;10.49;82.90
57572;BME280;44459;43.522;24.470;2022-10-04T21:31:51;101125.78;;;10.48;82.88
57572;BME280;44459;43.522;24.470;2022-10-04T21:34:17;101116.84;;;10.43;82.94
57572;BME280;44459;43.522;24.470;2022-10-04T21:36:42;101118.59;;;10.42;82.99
57572;BME280;44459;43.522;24.470;2022-10-04T21:39:08;101123.81;;;10.39;83.16
57572;BME280;44459;43.522;24.470;2022-10-04T21:41:33;101121.25;;;10.42;83.54
57572;BME280;44459;43.522;24.470;2022-10-04T21:43:58;101120.16;;;10.33;83.80
57572;BME280;44459;43.522;24.470;2022-10-04T21:46:24;101123.78;;;10.38;83.64
57572;BME280;44459;43.522;24.470;2022-10-04T21:48:49;101123.88;;;10.41;83.36
57572;BME280;44459;43.522;24.470;2022-10-04T21:51:15;101127.47;;;10.46;84.15
57572;BME280;44459;43.522;24.470;2022-10-04T21:53:40;101130.13;;;10.46;84.12
57572;BME280;44459;43.522;24.470;2022-10-04T21:56:06;101125.69;;;10.45;83.67
57572;BME280;44459;43.522;24.470;2022-10-04T21:58:32;101123.94;;;10.44;84.19
57572;BME280;44459;43.522;24.470;2022-10-04T22:00:58;101127.41;;;10.43;83.95
57572;BME280;44459;43.522;24.470;2022-10-04T22:03:23;101126.50;;;10.41;84.38
57572;BME280;44459;43.522;24.470;2022-10-04T22:05:49;101135.34;;;10.43;84.64
57572;BME280;44459;43.522;24.470;2022-10-04T22:08:15;101142.41;;;10.44;84.37
57572;BME280;44459;43.522;24.470;2022-10-04T22:10:40;101133.47;;;10.39;84.64
57572;BME280;44459;43.522;24.470;2022-10-04T22:13:07;101146.66;;;10.37;85.06
57572;BME280;44459;43.522;24.470;2022-10-04T22:15:33;101156.34;;;10.38;84.82
57572;BME280;44459;43.522;24.470;2022-10-04T22:17:59;101148.34;;;10.34;85.02
57572;BME280;44459;43.522;24.470;2022-10-04T22:20:26;101149.97;;;10.29;84.92
57572;BME280;44459;43.522;24.470;2022-10-04T22:22:53;101147.31;;;10.27;85.15
57572;BME280;44459;43.522;24.470;2022-10-04T22:25:21;101150.69;;;10.22;84.80
57572;BME280;44459;43.522;24.470;2022-10-04T22:27:47;101158.63;;;10.22;84.64